Time;durP1;ratioP1;P1;durP2;ratioP2;P2;SDS_P1;SDS_P2;PMS_P1;PMS_P2;Temp;Humidity;BMP_temperature;BMP_pressure;BME280_temperature;BME280_humidity;BME280_pressure;Samples;Min_cycle;Max_cycle;Signal;HPM_P1;HPM_P2
2021/10/20 00:02:58;;;;;;;;;;;;;;;;;;4257691;33;19941;-74
2021/10/20 00:05:23;;;;;;;;;;;;;;;;;;4281440;33;19943;-74
2021/10/20 00:07:48;;;;;;;;;;;;;;;;;;4287207;33;20247;-74
2021/10/20 00:10:13;;;;;;;;;;;;;;;;;;4286752;33;20225;-74
2021/10/20 00:15:25;;;;;;;;;;;;;;;;;;4288006;33;20287;-74
2021/10/20 00:20:40;;;;;;;;;;;;;;;;;;4288133;33;19951;-74
2021/10/20 00:23:16;;;;;;;;;;;;;;;;;;;;;
2021/10/20 00:28:26;;;;;;;;;;;;;;;;;;4288472;33;19955;-74
2021/10/20 00:30:54;;;;;;;;;;;;;;;;;;4298624;33;20332;-74
2021/10/20 00:36:38;;;;;;;;;;;;;;;;;;4272144;33;19948;-74
2021/10/20 00:39:16;;;;;;;;;;;;;;;;;;;;;
2021/10/20 00:44:41;;;;;;;;;;;;;;;;;;4288037;33;19972;-74
2021/10/20 00:47:16;;;;;;;;;;;;;;;;;;;;;
2021/10/20 00:49:54;;;;;;;;;;;;;;;;;;4285461;33;19966;-74
2021/10/20 00:55:19;;;;;;;;;;;;;;;;;;;;;
2021/10/20 01:00:32;;;;;;;;;;;;;;;;;;4243495;33;20003;-74
2021/10/20 01:03:18;;;;;;;;;;;;;;;;;;4272224;33;19940;-74
2021/10/20 01:05:45;;;;;;;;;;;;;;;;;;4273571;33;20323;-74
2021/10/20 01:08:30;;;;;;;;;;;;;;;;;;;;;
2021/10/20 01:10:56;;;;;;;;;;;;;;;;;;4273277;33;19944;-73
2021/10/20 01:13:30;;;;;;;;;;;;;;;;;;4276087;33;19951;-73
2021/10/20 01:15:55;;;;;;;;;;;;;;;;;;4278607;33;20181;-74
2021/10/20 01:32:26;;;;;;;;;;;;;;;;;;4280234;33;19963;-74
2021/10/20 01:37:50;;;;;;;;;;;;;;;;;;4290778;33;19931;-73
2021/10/20 01:40:15;;;;;;;;;;;;;;;;;;4289892;33;20354;-74
2021/10/20 01:42:40;;;;;;;;;;;;;;;;;;4289970;33;19956;-73
2021/10/20 01:50:33;;;;;;;;;;;;;;;;;;4290075;33;20002;-73
2021/10/20 01:52:58;;;;;;;;;;;;;;;;;;4290793;33;19991;-73
2021/10/20 01:58:34;;;;;;;;;;;;;;;;;;;;;
2021/10/20 02:00:59;;;;;;;;;;;;;;;;;;4290945;33;20322;-73
2021/10/20 02:03:25;;;;;;;;;;;;;;;;;;4289076;33;19963;-73
2021/10/20 02:05:53;;;;;;;;;;;;;;;;;;4298360;33;19940;-73
2021/10/20 02:22:43;;;;;;;;;;;;;;;;;;4247640;33;19997;-73
2021/10/20 02:25:11;;;;;;;;;;;;;;;;;;4235008;33;19952;-73
2021/10/20 02:27:36;;;;;;;;;;;;;;;;;;4233210;33;19998;-74
2021/10/20 02:30:20;;;;;;;;;;;;;;;;;;;;;
2021/10/20 02:32:55;;;;;;;;;;;;;;;;;;4216057;34;19969;-74
2021/10/20 02:38:25;;;;;;;;;;;;;;;;;;4189331;34;19966;-73
2021/10/20 02:49:04;;;;;;;;;;;;;;;;;;4188828;34;19951;-73
2021/10/20 02:54:41;;;;;;;;;;;;;;;;;;;;;
2021/10/20 02:57:28;;;;;;;;;;;;;;;;;;4244513;33;19949;-73
2021/10/20 03:00:08;;;;;;;;;;;;;;;;;;4244160;33;19946;-73
2021/10/20 03:02:51;;;;;;;;;;;;;;;;;;4244371;33;20342;-73
2021/10/20 03:05:33;;;;;;;;;;;;;;;;;;4244597;33;20190;-73
2021/10/20 03:31:22;;;;;;;;;;;;;;;;;;;;;
2021/10/20 03:36:45;;;;;;;;;;;;;;;;;;4272186;33;19986;-73
2021/10/20 03:42:07;;;;;;;;;;;;;;;;;;4272563;33;19982;-73
2021/10/20 03:44:32;;;;;;;;;;;;;;;;;;4272459;33;19966;-73
2021/10/20 03:55:23;;;;;;;;;;;;;;;;;;4300986;33;19960;-73
2021/10/20 03:58:01;;;;;;;;;;;;;;;;;;;;;
2021/10/20 04:00:26;;;;;;;;;;;;;;;;;;4300013;33;20324;-73
2021/10/20 04:02:52;;;;;;;;;;;;;;;;;;4301778;33;20293;-73
2021/10/20 04:05:38;;;;;;;;;;;;;;;;;;4301351;33;20039;-75
2021/10/20 04:08:11;;;;;;;;;;;;;;;;;;4295835;33;20462;-74
2021/10/20 04:13:42;;;;;;;;;;;;;;;;;;4302957;33;19952;-74
2021/10/20 04:16:10;;;;;;;;;;;;;;;;;;4289067;33;19984;-74
2021/10/20 04:21:19;;;;;;;;;;;;;;;;;;4302044;33;20023;-74
2021/10/20 04:23:47;;;;;;;;;;;;;;;;;;4288731;33;19976;-73
2021/10/20 04:26:43;;;;;;;;;;;;;;;;;;;;;
2021/10/20 04:31:53;;;;;;;;;;;;;;;;;;4302565;33;20010;-74
2021/10/20 04:34:19;;;;;;;;;;;;;;;;;;4302165;33;19999;-73
2021/10/20 04:36:59;;;;;;;;;;;;;;;;;;4302148;33;19970;-74
2021/10/20 04:42:20;;;;;;;;;;;;;;;;;;;;;
2021/10/20 04:44:54;;;;;;;;;;;;;;;;;;4298272;33;19981;-74
2021/10/20 04:47:19;;;;;;;;;;;;;;;;;;4286055;33;19999;-75
2021/10/20 04:55:22;;;;;;;;;;;;;;;;;;4285720;33;20460;-73
2021/10/20 04:57:49;;;;;;;;;;;;;;;;;;4300798;33;19970;-74
2021/10/20 05:03:06;;;;;;;;;;;;;;;;;;4285574;33;20007;-75
2021/10/20 05:05:31;;;;;;;;;;;;;;;;;;4272659;33;20341;-74
2021/10/20 05:07:58;;;;;;;;;;;;;;;;;;4287607;33;19970;-74
2021/10/20 05:10:38;;;;;;;;;;;;;;;;;;;;;
2021/10/20 05:19:16;;;;;;;;;;;;;;;;;;4301913;33;20017;-73
2021/10/20 05:21:17;;;;;;;;;;;;;;;;;;4294057;33;20012;-73
2021/10/20 05:23:43;;;;;;;;;;;;;;;;;;4288928;33;19972;-73
2021/10/20 05:26:08;;;;;;;;;;;;;;;;;;4288589;33;20031;-72
2021/10/20 05:28:36;;;;;;;;;;;;;;;;;;4289155;33;20356;-73
2021/10/20 05:31:01;;;;;;;;;;;;;;;;;;4301947;33;20029;-73
2021/10/20 05:33:26;;;;;;;;;;;;;;;;;;4294281;33;20307;-72
2021/10/20 05:35:51;;;;;;;;;;;;;;;;;;4302029;33;19973;-74
2021/10/20 05:38:26;;;;;;;;;;;;;;;;;;;;;
2021/10/20 05:40:52;;;;;;;;;;;;;;;;;;4306260;33;20323;-74
2021/10/20 05:43:19;;;;;;;;;;;;;;;;;;4292883;33;19978;-74
2021/10/20 05:48:29;;;;;;;;;;;;;;;;;;4313690;33;19996;-72
2021/10/20 05:50:55;;;;;;;;;;;;;;;;;;4302892;33;20009;-73
2021/10/20 05:54:08;;;;;;;;;;;;;;;;;;4310522;33;19964;-72
2021/10/20 05:56:06;;;;;;;;;;;;;;;;;;4306071;33;20028;-72
2021/10/20 05:58:31;;;;;;;;;;;;;;;;;;4302839;33;19966;-69
2021/10/20 06:00:56;;;;;;;;;;;;;;;;;;4318411;33;19996;-73
2021/10/20 06:03:21;;;;;;;;;;;;;;;;;;4304667;33;20405;-75
2021/10/20 06:05:46;;;;;;;;;;;;;;;;;;4305224;33;19985;-74
2021/10/20 06:08:12;;;;;;;;;;;;;;;;;;4305571;33;19972;-73
2021/10/20 06:13:24;;;;;;;;;;;;;;;;;;4295362;33;19980;-73
2021/10/20 06:15:49;;;;;;;;;;;;;;;;;;4300931;33;19964;-75
2021/10/20 06:18:14;;;;;;;;;;;;;;;;;;4289910;33;19988;-73
2021/10/20 06:20:45;;;;;;;;;;;;;;;;;;4290604;33;20014;-73
2021/10/20 06:23:10;;;;;;;;;;;;;;;;;;4303469;33;20014;-74
2021/10/20 06:25:36;;;;;;;;;;;;;;;;;;4296081;33;19985;-73
2021/10/20 06:28:01;;;;;;;;;;;;;;;;;;4295247;33;19979;-73
2021/10/20 06:33:12;;;;;;;;;;;;;;;;;;4273091;33;20089;-73
2021/10/20 06:35:37;;;;;;;;;;;;;;;;;;4299130;33;19980;-72
2021/10/20 06:38:02;;;;;;;;;;;;;;;;;;4290122;33;19968;-73
2021/10/20 06:40:27;;;;;;;;;;;;;;;;;;4301963;33;20301;-74
2021/10/20 06:42:53;;;;;;;;;;;;;;;;;;4290515;33;20016;-74
2021/10/20 06:45:18;;;;;;;;;;;;;;;;;;4289077;33;20319;-74
2021/10/20 06:47:43;;;;;;;;;;;;;;;;;;4302310;33;19983;-74
2021/10/20 06:52:53;;;;;;;;;;;;;;;;;;4303721;33;20034;-75
2021/10/20 06:55:18;;;;;;;;;;;;;;;;;;4303053;33;19975;-75
2021/10/20 06:58:33;;;;;;;;;;;;;;;;;;4287826;33;19973;-74
2021/10/20 07:01:11;;;;;;;;;;;;;;;;;;4297767;33;19976;-74
2021/10/20 07:07:01;;;;;;;;;;;;;;;;;;;;;
2021/10/20 07:19:56;;;;;;;;;;;;;;;;;;4254833;33;19980;-74
2021/10/20 07:27:51;;;;;;;;;;;;;;;;;;4257207;33;20479;-74
2021/10/20 07:38:55;;;;;;;;;;;;;;;;;;4223207;34;20315;-75
2021/10/20 07:44:06;;;;;;;;;;;;;;;;;;4243713;33;20380;-75
2021/10/20 07:51:58;;;;;;;;;;;;;;;;;;4243153;33;19974;-75
2021/10/20 07:54:23;;;;;;;;;;;;;;;;;;4243813;33;20353;-76
2021/10/20 07:57:10;;;;;;;;;;;;;;;;;;4242901;33;19965;-74
2021/10/20 07:59:35;;;;;;;;;;;;;;;;;;4242782;33;19951;-74
2021/10/20 08:02:00;;;;;;;;;;;;;;;;;;4245299;33;20391;-74
2021/10/20 08:04:25;;;;;;;;;;;;;;;;;;4286520;33;19949;-72
2021/10/20 08:06:50;;;;;;;;;;;;;;;;;;4287707;33;19998;-72
2021/10/20 08:09:15;;;;;;;;;;;;;;;;;;4286626;33;19983;-70
2021/10/20 08:11:41;;;;;;;;;;;;;;;;;;4287732;33;19977;-73
2021/10/20 08:14:06;;;;;;;;;;;;;;;;;;4280597;33;19974;-73
2021/10/20 08:16:31;;;;;;;;;;;;;;;;;;4288003;33;19974;-70
2021/10/20 08:18:56;;;;;;;;;;;;;;;;;;4288237;33;19983;-73
2021/10/20 08:21:21;;;;;;;;;;;;;;;;;;4285866;33;20073;-70
2021/10/20 08:23:47;;;;;;;;;;;;;;;;;;4286649;33;19972;-74
2021/10/20 08:26:12;;;;;;;;;;;;;;;;;;4287173;33;20074;-72
2021/10/20 08:28:37;;;;;;;;;;;;;;;;;;4290240;33;19974;-70
2021/10/20 08:31:02;;;;;;;;;;;;;;;;;;4293822;33;19988;-69
2021/10/20 08:33:27;;;;;;;;;;;;;;;;;;4288838;33;19959;-73
2021/10/20 08:35:52;;;;;;;;;;;;;;;;;;4285408;33;20249;-70
2021/10/20 08:38:18;;;;;;;;;;;;;;;;;;4300774;33;19977;-68
2021/10/20 08:40:46;;;;;;;;;;;;;;;;;;4301756;33;19990;-75
2021/10/20 08:43:11;;;;;;;;;;;;;;;;;;4288297;33;19962;-73
2021/10/20 08:45:36;;;;;;;;;;;;;;;;;;4289079;33;19987;-69
2021/10/20 08:48:01;;;;;;;;;;;;;;;;;;4278741;33;19975;-67
2021/10/20 08:50:26;;;;;;;;;;;;;;;;;;4300660;33;19959;-68
2021/10/20 08:52:51;;;;;;;;;;;;;;;;;;4274277;33;20326;-74
2021/10/20 08:55:16;;;;;;;;;;;;;;;;;;4278703;33;19965;-74
2021/10/20 08:57:41;;;;;;;;;;;;;;;;;;4272629;33;20391;-74
2021/10/20 09:00:07;;;;;;;;;;;;;;;;;;4276044;33;20343;-73
2021/10/20 09:02:38;;;;;;;;;;;;;;;;;;4291834;33;20323;-74
2021/10/20 09:05:19;;;;;;;;;;;;;;;;;;4274423;33;19941;-74
2021/10/20 09:07:44;;;;;;;;;;;;;;;;;;4280048;33;19944;-74
2021/10/20 09:10:12;;;;;;;;;;;;;;;;;;4280803;33;20043;-74
2021/10/20 09:12:38;;;;;;;;;;;;;;;;;;4286372;33;19952;-75
2021/10/20 09:15:03;;;;;;;;;;;;;;;;;;4285818;33;20386;-73
2021/10/20 09:17:28;;;;;;;;;;;;;;;;;;4299702;33;19975;-74
2021/10/20 09:19:58;;;;;;;;;;;;;;;;;;4283378;33;19977;-75
2021/10/20 09:22:23;;;;;;;;;;;;;;;;;;4278842;33;19973;-73
2021/10/20 09:24:48;;;;;;;;;;;;;;;;;;4288756;33;19968;-73
2021/10/20 09:27:13;;;;;;;;;;;;;;;;;;4275324;33;19987;-73
2021/10/20 09:29:38;;;;;;;;;;;;;;;;;;4294419;33;20414;-74
2021/10/20 09:32:04;;;;;;;;;;;;;;;;;;4273959;33;20034;-74
2021/10/20 09:34:33;;;;;;;;;;;;;;;;;;4299406;33;20307;-75
2021/10/20 09:36:59;;;;;;;;;;;;;;;;;;4290338;33;20030;-74
2021/10/20 09:39:28;;;;;;;;;;;;;;;;;;4296424;33;19983;-74
2021/10/20 09:42:02;;;;;;;;;;;;;;;;;;4290117;33;19986;-73
2021/10/20 09:44:28;;;;;;;;;;;;;;;;;;4290741;33;19966;-74
2021/10/20 09:46:54;;;;;;;;;;;;;;;;;;4291078;33;19979;-75
2021/10/20 09:49:25;;;;;;;;;;;;;;;;;;4291510;33;19959;-74
2021/10/20 09:51:50;;;;;;;;;;;;;;;;;;4291343;33;20341;-74
2021/10/20 09:54:16;;;;;;;;;;;;;;;;;;4304778;33;20281;-74
2021/10/20 09:56:41;;;;;;;;;;;;;;;;;;4290794;33;19974;-74
2021/10/20 09:59:06;;;;;;;;;;;;;;;;;;4290528;33;19981;-72
2021/10/20 10:01:31;;;;;;;;;;;;;;;;;;4289686;33;20008;-75
2021/10/20 10:04:02;;;;;;;;;;;;;;;;;;4303672;33;20016;-75
2021/10/20 10:06:27;;;;;;;;;;;;;;;;;;4290353;33;19979;-74
2021/10/20 10:08:52;;;;;;;;;;;;;;;;;;4290623;33;19970;-73
2021/10/20 10:11:17;;;;;;;;;;;;;;;;;;4303822;33;20297;-73
2021/10/20 10:13:43;;;;;;;;;;;;;;;;;;4290522;33;19952;-73
2021/10/20 10:16:08;;;;;;;;;;;;;;;;;;4290328;33;19968;-73
2021/10/20 10:18:33;;;;;;;;;;;;;;;;;;4291693;33;19955;-74
2021/10/20 10:21:01;;;;;;;;;;;;;;;;;;4290675;33;19959;-74
2021/10/20 10:23:27;;;;;;;;;;;;;;;;;;4290786;33;19948;-74
2021/10/20 10:25:52;;;;;;;;;;;;;;;;;;4290361;33;19955;-74
2021/10/20 10:28:17;;;;;;;;;;;;;;;;;;4290863;33;19996;-74
2021/10/20 10:30:43;;;;;;;;;;;;;;;;;;4290731;33;19957;-75
2021/10/20 10:33:08;;;;;;;;;;;;;;;;;;4290495;33;19955;-74
2021/10/20 10:35:36;;;;;;;;;;;;;;;;;;4291027;33;19955;-74
2021/10/20 10:38:01;;;;;;;;;;;;;;;;;;4290897;33;20307;-74
2021/10/20 10:40:38;;;;;;;;;;;;;;;;;;4290177;33;19945;-73
2021/10/20 10:43:03;;;;;;;;;;;;;;;;;;4290299;33;20369;-75
2021/10/20 10:45:28;;;;;;;;;;;;;;;;;;4289237;33;19994;-73
2021/10/20 10:47:53;;;;;;;;;;;;;;;;;;4291296;33;19978;-74
2021/10/20 10:50:18;;;;;;;;;;;;;;;;;;4290684;33;19948;-74
2021/10/20 10:52:45;;;;;;;;;;;;;;;;;;4290017;33;20275;-76
2021/10/20 10:55:13;;;;;;;;;;;;;;;;;;4303684;33;19959;-74
2021/10/20 10:57:38;;;;;;;;;;;;;;;;;;4289788;33;19937;-73
2021/10/20 11:00:06;;;;;;;;;;;;;;;;;;4287974;33;20075;-74
2021/10/20 11:02:35;;;;;;;;;;;;;;;;;;4289002;33;20323;-74
2021/10/20 11:05:02;;;;;;;;;;;;;;;;;;4287246;33;20017;-75
2021/10/20 11:07:27;;;;;;;;;;;;;;;;;;4287852;33;20000;-75
2021/10/20 11:09:52;;;;;;;;;;;;;;;;;;4289249;33;20290;-75
2021/10/20 11:12:18;;;;;;;;;;;;;;;;;;4301800;33;19967;-73
2021/10/20 11:14:43;;;;;;;;;;;;;;;;;;4287108;33;19976;-74
2021/10/20 11:17:09;;;;;;;;;;;;;;;;;;4289875;33;20323;-74
2021/10/20 11:19:34;;;;;;;;;;;;;;;;;;4289800;33;19977;-74
2021/10/20 11:21:59;;;;;;;;;;;;;;;;;;4289588;33;20026;-74
2021/10/20 11:24:24;;;;;;;;;;;;;;;;;;4289449;33;19977;-73
2021/10/20 11:26:51;;;;;;;;;;;;;;;;;;4289469;33;19988;-74
2021/10/20 11:29:16;;;;;;;;;;;;;;;;;;4300366;33;19984;-75
2021/10/20 11:31:41;;;;;;;;;;;;;;;;;;4304297;33;19983;-75
2021/10/20 11:34:06;;;;;;;;;;;;;;;;;;4304836;33;20011;-75
2021/10/20 11:36:31;;;;;;;;;;;;;;;;;;4285892;33;20019;-74
2021/10/20 11:38:56;;;;;;;;;;;;;;;;;;4289666;33;19966;-73
2021/10/20 11:41:22;;;;;;;;;;;;;;;;;;4303654;33;19963;-74
2021/10/20 11:43:52;;;;;;;;;;;;;;;;;;4289344;33;20016;-75
2021/10/20 11:46:19;;;;;;;;;;;;;;;;;;4302893;33;19988;-74
2021/10/20 11:48:44;;;;;;;;;;;;;;;;;;4289677;33;19937;-74
2021/10/20 11:51:09;;;;;;;;;;;;;;;;;;4289686;33;20038;-74
2021/10/20 11:53:34;;;;;;;;;;;;;;;;;;4302232;33;20003;-74
2021/10/20 11:56:00;;;;;;;;;;;;;;;;;;4302868;33;19992;-74
2021/10/20 11:58:25;;;;;;;;;;;;;;;;;;4288868;33;19937;-75
2021/10/20 12:00:51;;;;;;;;;;;;;;;;;;4289149;33;19984;-75
2021/10/20 12:03:23;;;;;;;;;;;;;;;;;;4289740;33;19948;-72
2021/10/20 12:05:58;;;;;;;;;;;;;;;;;;4302790;33;19948;-74
2021/10/20 12:08:23;;;;;;;;;;;;;;;;;;4285985;33;19983;-75
2021/10/20 12:10:51;;;;;;;;;;;;;;;;;;4288815;33;19948;-75
2021/10/20 12:13:16;;;;;;;;;;;;;;;;;;4288520;33;20323;-75
2021/10/20 12:15:47;;;;;;;;;;;;;;;;;;4286419;33;19944;-74
2021/10/20 12:18:21;;;;;;;;;;;;;;;;;;4288251;33;19955;-74
2021/10/20 12:20:52;;;;;;;;;;;;;;;;;;4286425;33;19945;-74
2021/10/20 12:23:17;;;;;;;;;;;;;;;;;;4286757;33;20042;-74
2021/10/20 12:25:42;;;;;;;;;;;;;;;;;;4288026;33;20301;-73
2021/10/20 12:28:10;;;;;;;;;;;;;;;;;;4286374;33;19955;-73
2021/10/20 12:30:38;;;;;;;;;;;;;;;;;;4286701;33;20393;-74
2021/10/20 12:33:03;;;;;;;;;;;;;;;;;;4301671;33;19953;-74
2021/10/20 12:35:29;;;;;;;;;;;;;;;;;;4287293;33;19951;-73
2021/10/20 12:38:04;;;;;;;;;;;;;;;;;;;;;
2021/10/20 12:40:29;;;;;;;;;;;;;;;;;;4302007;33;19970;-72
2021/10/20 12:42:57;;;;;;;;;;;;;;;;;;4288435;33;19944;-74
2021/10/20 12:45:22;;;;;;;;;;;;;;;;;;4288280;33;19975;-75
2021/10/20 12:47:47;;;;;;;;;;;;;;;;;;4286087;33;19972;-74
2021/10/20 12:50:13;;;;;;;;;;;;;;;;;;4286550;33;19960;-75
2021/10/20 12:52:47;;;;;;;;;;;;;;;;;;4286180;33;19996;-75
2021/10/20 12:55:15;;;;;;;;;;;;;;;;;;4286572;33;19937;-73
2021/10/20 12:57:57;;;;;;;;;;;;;;;;;;;;;
2021/10/20 13:00:28;;;;;;;;;;;;;;;;;;4288114;33;19955;-72
2021/10/20 13:02:53;;;;;;;;;;;;;;;;;;4290022;33;20035;-74
2021/10/20 13:05:21;;;;;;;;;;;;;;;;;;4301506;33;19952;-73
2021/10/20 13:07:46;;;;;;;;;;;;;;;;;;4288447;33;19960;-75
2021/10/20 13:10:14;;;;;;;;;;;;;;;;;;4288796;33;19965;-74
2021/10/20 13:12:42;;;;;;;;;;;;;;;;;;4289617;33;19955;-73
2021/10/20 13:15:29;;;;;;;;;;;;;;;;;;;;;
2021/10/20 13:17:55;;;;;;;;;;;;;;;;;;4306585;33;19945;-72
2021/10/20 13:20:20;;;;;;;;;;;;;;;;;;4294371;33;19994;-70
2021/10/20 13:22:45;;;;;;;;;;;;;;;;;;4306148;33;19965;-73
2021/10/20 13:25:11;;;;;;;;;;;;;;;;;;4300024;33;20390;-68
2021/10/20 13:27:39;;;;;;;;;;;;;;;;;;4302676;33;19988;-70
2021/10/20 13:30:04;;;;;;;;;;;;;;;;;;4289031;33;19940;-69
2021/10/20 13:32:30;;;;;;;;;;;;;;;;;;4286668;33;19994;-72
2021/10/20 13:34:56;;;;;;;;;;;;;;;;;;4274045;33;19972;-71
2021/10/20 13:37:37;;;;;;;;;;;;;;;;;;4273755;33;19945;-74
2021/10/20 13:40:02;;;;;;;;;;;;;;;;;;4274766;33;20004;-73
2021/10/20 13:42:27;;;;;;;;;;;;;;;;;;4270700;33;19941;-76
2021/10/20 13:44:52;;;;;;;;;;;;;;;;;;4281394;33;19982;-72
2021/10/20 13:47:24;;;;;;;;;;;;;;;;;;4273486;33;19949;-73
2021/10/20 13:50:04;;;;;;;;;;;;;;;;;;4284762;33;19944;-73
2021/10/20 13:52:29;;;;;;;;;;;;;;;;;;4301557;33;20312;-74
2021/10/20 13:54:58;;;;;;;;;;;;;;;;;;4288110;33;19941;-73
2021/10/20 13:57:23;;;;;;;;;;;;;;;;;;4275926;33;19940;-75
2021/10/20 13:59:54;;;;;;;;;;;;;;;;;;4273865;33;19959;-70
2021/10/20 14:02:19;;;;;;;;;;;;;;;;;;4271502;33;19952;-74
2021/10/20 14:04:44;;;;;;;;;;;;;;;;;;4283213;33;20279;-73
2021/10/20 14:07:28;;;;;;;;;;;;;;;;;;4270499;33;19996;-75
2021/10/20 14:10:14;;;;;;;;;;;;;;;;;;4278686;33;20288;-73
2021/10/20 14:12:41;;;;;;;;;;;;;;;;;;4279524;33;19993;-74
2021/10/20 14:15:07;;;;;;;;;;;;;;;;;;4271664;33;19941;-74
2021/10/20 14:17:32;;;;;;;;;;;;;;;;;;4271815;33;19948;-73
2021/10/20 14:19:59;;;;;;;;;;;;;;;;;;4270646;33;19996;-72
2021/10/20 14:22:33;;;;;;;;;;;;;;;;;;4284797;33;19981;-73
2021/10/20 14:25:10;;;;;;;;;;;;;;;;;;4281272;33;19952;-74
2021/10/20 14:27:35;;;;;;;;;;;;;;;;;;4288943;33;19964;-73
2021/10/20 14:30:00;;;;;;;;;;;;;;;;;;4276545;33;19988;-74
2021/10/20 14:32:44;;;;;;;;;;;;;;;;;;4276026;33;19955;-76
2021/10/20 14:35:14;;;;;;;;;;;;;;;;;;4275873;33;19944;-74
2021/10/20 14:37:45;;;;;;;;;;;;;;;;;;4278355;33;19941;-75
2021/10/20 14:40:29;;;;;;;;;;;;;;;;;;;;;
2021/10/20 14:43:02;;;;;;;;;;;;;;;;;;4284111;33;19956;-75
2021/10/20 14:48:10;;;;;;;;;;;;;;;;;;4275742;33;19988;-75
2021/10/20 14:50:55;;;;;;;;;;;;;;;;;;;;;
2021/10/20 14:53:26;;;;;;;;;;;;;;;;;;4300643;33;20014;-75
2021/10/20 14:55:51;;;;;;;;;;;;;;;;;;4274083;33;19941;-75
2021/10/20 14:58:16;;;;;;;;;;;;;;;;;;4275912;33;20519;-75
2021/10/20 15:00:41;;;;;;;;;;;;;;;;;;4276105;33;19994;-75
2021/10/20 15:05:57;;;;;;;;;;;;;;;;;;4288715;33;19952;-77
2021/10/20 15:08:23;;;;;;;;;;;;;;;;;;4275517;33;20042;-75
2021/10/20 15:10:57;;;;;;;;;;;;;;;;;;4275659;33;19967;-75
2021/10/20 15:13:36;;;;;;;;;;;;;;;;;;;;;
2021/10/20 15:16:01;;;;;;;;;;;;;;;;;;4288534;33;19949;-77
2021/10/20 15:18:42;;;;;;;;;;;;;;;;;;;;;
2021/10/20 15:21:10;;;;;;;;;;;;;;;;;;4288823;33;19964;-74
2021/10/20 15:23:35;;;;;;;;;;;;;;;;;;4275152;33;19955;-75
2021/10/20 15:26:00;;;;;;;;;;;;;;;;;;4272017;33;19953;-75
2021/10/20 15:28:28;;;;;;;;;;;;;;;;;;4271076;33;19954;-75
2021/10/20 15:30:54;;;;;;;;;;;;;;;;;;4260511;33;19983;-75
2021/10/20 15:33:19;;;;;;;;;;;;;;;;;;4263016;33;20358;-75
2021/10/20 15:35:45;;;;;;;;;;;;;;;;;;4285843;33;19960;-74
2021/10/20 15:38:10;;;;;;;;;;;;;;;;;;4286340;33;19986;-75
2021/10/20 15:40:37;;;;;;;;;;;;;;;;;;4285865;33;19952;-74
2021/10/20 15:43:02;;;;;;;;;;;;;;;;;;4286255;33;20370;-75
2021/10/20 15:48:33;;;;;;;;;;;;;;;;;;4276788;33;19944;-75
2021/10/20 15:53:46;;;;;;;;;;;;;;;;;;4286133;33;19996;-76
2021/10/20 16:30:04;;;;;;;;;;;;;;;;;;;;;
2021/10/20 16:32:27;;;;;;;;;;;;;;;;;;4217853;34;19951;-81
2021/10/20 16:37:40;;;;;;;;;;;;;;;;;;4242147;33;19978;-81
2021/10/20 16:40:15;;;;;;;;;;;;;;;;;;;;;
2021/10/20 16:42:53;;;;;;;;;;;;;;;;;;4284470;33;19988;-82
2021/10/20 16:45:33;;;;;;;;;;;;;;;;;;4273102;33;19940;-81
2021/10/20 16:51:19;;;;;;;;;;;;;;;;;;;;;
2021/10/20 16:53:44;;;;;;;;;;;;;;;;;;4258917;33;19949;-81
2021/10/20 16:56:10;;;;;;;;;;;;;;;;;;4285912;33;19966;-81
2021/10/20 17:06:56;;;;;;;;;;;;;;;;;;4243181;33;19969;-81
2021/10/20 17:17:51;;;;;;;;;;;;;;;;;;4285461;33;19980;-80
2021/10/20 17:20:21;;;;;;;;;;;;;;;;;;4288626;33;19952;-80
2021/10/20 17:22:49;;;;;;;;;;;;;;;;;;4302264;33;19964;-80
2021/10/20 17:25:44;;;;;;;;;;;;;;;;;;4301053;33;19971;-80
2021/10/20 17:28:29;;;;;;;;;;;;;;;;;;4288338;33;19975;-80
2021/10/20 17:31:09;;;;;;;;;;;;;;;;;;4288833;33;20129;-79
2021/10/20 17:34:03;;;;;;;;;;;;;;;;;;;;;
2021/10/20 17:37:19;;;;;;;;;;;;;;;;;;;;;
2021/10/20 17:39:40;;;;;;;;;;;;;;;;;;;;;
2021/10/20 17:42:23;;;;;;;;;;;;;;;;;;;;;
2021/10/20 17:44:58;;;;;;;;;;;;;;;;;;4295311;33;19941;-79
2021/10/20 17:47:50;;;;;;;;;;;;;;;;;;;;;
2021/10/20 17:50:46;;;;;;;;;;;;;;;;;;;;;
2021/10/20 17:56:04;;;;;;;;;;;;;;;;;;;;;
2021/10/20 17:58:39;;;;;;;;;;;;;;;;;;4303598;33;20559;-77
2021/10/20 18:01:15;;;;;;;;;;;;;;;;;;4291171;33;19936;-79
2021/10/20 18:03:40;;;;;;;;;;;;;;;;;;4290941;33;20698;-78
2021/10/20 18:06:36;;;;;;;;;;;;;;;;;;;;;
2021/10/20 18:08:51;;;;;;;;;;;;;;;;;;4301945;33;20003;-76
2021/10/20 18:11:34;;;;;;;;;;;;;;;;;;4302841;33;19988;-76
2021/10/20 18:16:43;;;;;;;;;;;;;;;;;;4303924;33;19951;-78
2021/10/20 18:19:14;;;;;;;;;;;;;;;;;;4301908;33;19981;-78
2021/10/20 18:21:42;;;;;;;;;;;;;;;;;;4297584;33;19955;-78
2021/10/20 18:31:42;;;;;;;;;;;;;;;;;;4302361;33;20032;-79
2021/10/20 18:37:10;;;;;;;;;;;;;;;;;;;;;
2021/10/20 18:39:36;;;;;;;;;;;;;;;;;;4287436;33;19944;-76
2021/10/20 18:42:04;;;;;;;;;;;;;;;;;;4286837;33;19944;-76
2021/10/20 18:44:57;;;;;;;;;;;;;;;;;;;;;
2021/10/20 18:47:19;;;;;;;;;;;;;;;;;;4281297;33;19933;-78
2021/10/20 18:49:44;;;;;;;;;;;;;;;;;;4289538;33;19948;-78
2021/10/20 18:52:09;;;;;;;;;;;;;;;;;;4290156;33;20056;-77
2021/10/20 18:54:35;;;;;;;;;;;;;;;;;;4287490;33;20345;-77
2021/10/20 18:57:03;;;;;;;;;;;;;;;;;;4287836;33;20039;-78
2021/10/20 18:59:36;;;;;;;;;;;;;;;;;;4287818;33;19979;-77
2021/10/20 19:02:04;;;;;;;;;;;;;;;;;;4287609;33;19987;-78
2021/10/20 19:04:32;;;;;;;;;;;;;;;;;;4288003;33;19972;-78
2021/10/20 19:06:57;;;;;;;;;;;;;;;;;;4286670;33;19996;-78
2021/10/20 19:09:24;;;;;;;;;;;;;;;;;;4287332;33;19953;-78
2021/10/20 19:12:00;;;;;;;;;;;;;;;;;;;;;
2021/10/20 19:17:09;;;;;;;;;;;;;;;;;;4302820;33;20362;-78
2021/10/20 19:19:35;;;;;;;;;;;;;;;;;;4289712;33;19996;-78
2021/10/20 19:22:03;;;;;;;;;;;;;;;;;;4290031;33;19976;-78
2021/10/20 19:24:28;;;;;;;;;;;;;;;;;;4288980;33;20011;-78
2021/10/20 19:26:56;;;;;;;;;;;;;;;;;;4289909;33;19956;-78
2021/10/20 19:29:31;;;;;;;;;;;;;;;;;;4290413;33;19979;-78
2021/10/20 19:31:56;;;;;;;;;;;;;;;;;;4288407;33;19970;-78
2021/10/20 19:34:24;;;;;;;;;;;;;;;;;;4284518;33;20011;-78
2021/10/20 19:36:49;;;;;;;;;;;;;;;;;;4302543;33;19963;-79
2021/10/20 19:39:17;;;;;;;;;;;;;;;;;;4299434;33;19945;-77
2021/10/20 19:47:27;;;;;;;;;;;;;;;;;;4276138;33;20037;-79
2021/10/20 19:50:22;;;;;;;;;;;;;;;;;;;;;
2021/10/20 19:53:01;;;;;;;;;;;;;;;;;;;;;
2021/10/20 20:15:23;;;;;;;;;;;;;;;;;;4173441;34;19939;-77
2021/10/20 20:20:41;;;;;;;;;;;;;;;;;;4260920;33;19951;-78
2021/10/20 20:23:06;;;;;;;;;;;;;;;;;;4270995;33;19940;-78
2021/10/20 20:25:34;;;;;;;;;;;;;;;;;;4275708;33;19963;-78
2021/10/20 20:28:14;;;;;;;;;;;;;;;;;;4259228;33;20047;-79
2021/10/20 20:30:39;;;;;;;;;;;;;;;;;;4260489;33;20051;-78
2021/10/20 20:35:59;;;;;;;;;;;;;;;;;;4256976;33;19937;-77
2021/10/20 20:41:27;;;;;;;;;;;;;;;;;;4292980;33;19940;-79
2021/10/20 20:43:54;;;;;;;;;;;;;;;;;;4288891;33;19936;-78
2021/10/20 20:46:20;;;;;;;;;;;;;;;;;;4288679;33;19935;-79
2021/10/20 20:48:45;;;;;;;;;;;;;;;;;;4288929;33;19982;-79
2021/10/20 20:51:10;;;;;;;;;;;;;;;;;;4288510;33;20006;-80
2021/10/20 20:53:38;;;;;;;;;;;;;;;;;;4288823;33;20019;-81
2021/10/20 20:58:58;;;;;;;;;;;;;;;;;;4302561;33;20270;-81
2021/10/20 21:01:32;;;;;;;;;;;;;;;;;;4288961;33;19958;-81
2021/10/20 21:03:57;;;;;;;;;;;;;;;;;;4289620;33;20181;-80
2021/10/20 21:09:11;;;;;;;;;;;;;;;;;;4302390;33;19968;-81
2021/10/20 21:11:40;;;;;;;;;;;;;;;;;;4288966;33;19941;-81
2021/10/20 21:14:10;;;;;;;;;;;;;;;;;;4302603;33;20252;-80
2021/10/20 21:16:47;;;;;;;;;;;;;;;;;;;;;
2021/10/20 21:19:38;;;;;;;;;;;;;;;;;;;;;
2021/10/20 21:22:03;;;;;;;;;;;;;;;;;;4302036;33;19966;-79
2021/10/20 21:24:31;;;;;;;;;;;;;;;;;;4301011;33;19937;-80
2021/10/20 21:27:01;;;;;;;;;;;;;;;;;;4302597;33;20002;-80
2021/10/20 21:35:11;;;;;;;;;;;;;;;;;;4305105;33;20042;-80
2021/10/20 21:37:39;;;;;;;;;;;;;;;;;;4304432;33;19940;-79
2021/10/20 21:40:10;;;;;;;;;;;;;;;;;;4302590;33;19948;-80
2021/10/20 21:42:46;;;;;;;;;;;;;;;;;;;;;
2021/10/20 21:50:44;;;;;;;;;;;;;;;;;;4273985;33;19944;-79
2021/10/20 21:53:12;;;;;;;;;;;;;;;;;;4261775;33;20328;-79
2021/10/20 21:58:23;;;;;;;;;;;;;;;;;;4274114;33;19983;-79
2021/10/20 22:09:04;;;;;;;;;;;;;;;;;;4245529;33;19969;-79
2021/10/20 22:11:45;;;;;;;;;;;;;;;;;;;;;
2021/10/20 22:14:13;;;;;;;;;;;;;;;;;;4253385;33;19989;-79
2021/10/20 22:16:46;;;;;;;;;;;;;;;;;;4281427;33;20350;-79
2021/10/20 22:19:19;;;;;;;;;;;;;;;;;;4288734;33;19976;-79
2021/10/20 22:21:57;;;;;;;;;;;;;;;;;;4273622;33;19949;-79
2021/10/20 22:27:25;;;;;;;;;;;;;;;;;;4259369;33;20023;-79
2021/10/20 22:29:51;;;;;;;;;;;;;;;;;;4259448;33;19971;-81
2021/10/20 22:32:18;;;;;;;;;;;;;;;;;;4273361;33;19945;-81
2021/10/20 22:34:46;;;;;;;;;;;;;;;;;;4261719;33;19954;-81
2021/10/20 22:37:27;;;;;;;;;;;;;;;;;;;;;
2021/10/20 22:39:53;;;;;;;;;;;;;;;;;;4273700;33;19945;-81
2021/10/20 22:42:20;;;;;;;;;;;;;;;;;;4260347;33;19988;-81
2021/10/20 22:44:48;;;;;;;;;;;;;;;;;;4261071;33;20002;-81
2021/10/20 22:47:19;;;;;;;;;;;;;;;;;;4274828;33;19972;-80
2021/10/20 22:49:45;;;;;;;;;;;;;;;;;;4289558;33;20003;-81
2021/10/20 22:52:20;;;;;;;;;;;;;;;;;;;;;
2021/10/20 22:55:02;;;;;;;;;;;;;;;;;;4287401;33;20010;-81
2021/10/20 22:57:27;;;;;;;;;;;;;;;;;;4288065;33;19964;-81
2021/10/20 22:59:53;;;;;;;;;;;;;;;;;;4287895;33;19994;-81
2021/10/20 23:02:20;;;;;;;;;;;;;;;;;;4287894;33;19971;-81
2021/10/20 23:05:11;;;;;;;;;;;;;;;;;;;;;
2021/10/20 23:07:42;;;;;;;;;;;;;;;;;;4289755;33;19968;-80
2021/10/20 23:12:56;;;;;;;;;;;;;;;;;;4301022;33;19991;-80